地図

経路データ

SID SEASON NUMBER BASIN SUBBASIN NAME ISO_TIME NATURE LAT LON WMO_WIND WMO_PRES WMO_AGENCY TRACK_TYPE DIST2LAND LANDFALL IFLAG USA_AGENCY USA_ATCF_ID USA_LAT USA_LON USA_RECORD USA_STATUS USA_WIND USA_PRES USA_SSHS USA_R34_NE USA_R34_SE USA_R34_SW USA_R34_NW USA_R50_NE USA_R50_SE USA_R50_SW USA_R50_NW USA_R64_NE USA_R64_SE USA_R64_SW USA_R64_NW USA_POCI USA_ROCI USA_RMW USA_EYE TOKYO_LAT TOKYO_LON TOKYO_GRADE TOKYO_WIND TOKYO_PRES TOKYO_R50_DIR TOKYO_R50_LONG TOKYO_R50_SHORT TOKYO_R30_DIR TOKYO_R30_LONG TOKYO_R30_SHORT TOKYO_LAND CMA_LAT CMA_LON CMA_CAT CMA_WIND CMA_PRES HKO_LAT HKO_LON HKO_CAT HKO_WIND HKO_PRES NEWDELHI_LAT NEWDELHI_LON NEWDELHI_GRADE NEWDELHI_WIND NEWDELHI_PRES NEWDELHI_CI NEWDELHI_DP NEWDELHI_POCI REUNION_LAT REUNION_LON REUNION_TYPE REUNION_WIND REUNION_PRES REUNION_TNUM REUNION_CI REUNION_RMW REUNION_R34_NE REUNION_R34_SE REUNION_R34_SW REUNION_R34_NW REUNION_R50_NE REUNION_R50_SE REUNION_R50_SW REUNION_R50_NW REUNION_R64_NE REUNION_R64_SE REUNION_R64_SW REUNION_R64_NW BOM_LAT BOM_LON BOM_TYPE BOM_WIND BOM_PRES BOM_TNUM BOM_CI BOM_RMW BOM_R34_NE BOM_R34_SE BOM_R34_SW BOM_R34_NW BOM_R50_NE BOM_R50_SE BOM_R50_SW BOM_R50_NW BOM_R64_NE BOM_R64_SE BOM_R64_SW BOM_R64_NW BOM_ROCI BOM_POCI BOM_EYE BOM_POS_METHOD BOM_PRES_METHOD NADI_LAT NADI_LON NADI_CAT NADI_WIND NADI_PRES WELLINGTON_LAT WELLINGTON_LON WELLINGTON_WIND WELLINGTON_PRES DS824_LAT DS824_LON DS824_STAGE DS824_WIND DS824_PRES TD9636_LAT TD9636_LON TD9636_STAGE TD9636_WIND TD9636_PRES TD9635_LAT TD9635_LON TD9635_WIND TD9635_PRES TD9635_ROCI NEUMANN_LAT NEUMANN_LON NEUMANN_CLASS NEUMANN_WIND NEUMANN_PRES MLC_LAT MLC_LON MLC_CLASS MLC_WIND MLC_PRES USA_GUST BOM_GUST BOM_GUST_PER REUNION_GUST REUNION_GUST_PER USA_SEAHGT USA_SEARAD_NE USA_SEARAD_SE USA_SEARAD_SW USA_SEARAD_NW STORM_SPEED STORM_DIR
1955316S11124 1956 93 SI WA NOT_NAMED 1955-11-12 01:00:00 NR -11.2500 124.000 1002 bom main 92 103 ______O___O___ -1 -11.5000 124.000 1002 -11.0000 124.000 7 6 200
1955316S11124 1956 93 SI WA NOT_NAMED 1955-11-12 03:00:00 NR -11.4325 123.926 main 112 112 ______P___P___ -1 -11.6005 123.958 -11.2645 123.894 7 6 205
1955316S11124 1956 93 SI WA NOT_NAMED 1955-11-12 06:00:00 TS -11.7049 123.781 main 145 145 O_____P__OP___ jtwc_sh SH011956 -11.7000 123.700 -1 -11.7512 123.893 -11.7000 123.700 TC -11.6619 123.724 7 7 207
1955316S11124 1956 93 SI WA NOT_NAMED 1955-11-12 09:00:00 TS -12.0195 123.624 main 179 179 P_____P__PP___ SH011956 -12.0950 123.520 -1 -11.9018 123.824 -12.0950 123.520 TC -12.0616 123.528 7 7 208
1955316S11124 1956 93 SI WA NOT_NAMED 1955-11-12 12:00:00 TS -12.3620 123.426 main 224 224 O_____P__OP___ jtwc_sh SH011956 -12.5000 123.300 -1 -12.0523 123.749 -12.5000 123.300 TC -12.4647 123.291 7 8 210
1955316S11124 1956 93 SI WA NOT_NAMED 1955-11-12 13:00:00 TS -12.4949 123.336 main 236 236 P_____P__PO___ SH011956 -12.6386 123.211 -1 -12.1023 123.722 -12.6386 123.211 TC -12.6000 123.200 7 9 214
1955316S11124 1956 93 SI WA NOT_NAMED 1955-11-12 15:00:00 TS -12.7259 123.174 main 259 259 P_____P__PP___ SH011956 -12.9150 123.015 -1 -12.2024 123.666 -12.9150 123.015 TC -12.8711 123.000 7 8 217
1955316S11124 1956 93 SI WA NOT_NAMED 1955-11-12 18:00:00 TS -13.0545 122.911 main 299 299 O_____P__OP___ jtwc_sh SH011956 -13.3000 122.700 -1 -12.3522 123.572 -13.3000 122.700 TC -13.2658 122.673 7 8 220
1955316S11124 1956 93 SI WA NOT_NAMED 1955-11-12 21:00:00 TS -13.3500 122.643 main 311 311 P_____P__PP___ SH011956 -13.6375 122.378 -1 -12.5016 123.466 -13.6375 122.378 TC -13.6235 122.351 7 7 223
1955316S11124 1956 93 SI WA NOT_NAMED 1955-11-13 00:00:00 TS -13.5341 122.457 main 311 311 O_____P__OP___ jtwc_sh SH011956 -13.9000 122.100 -1 -12.6505 123.344 -13.9000 122.100 TC -13.9194 122.075 7 4 225
1955316S11124 1956 93 SI WA NOT_NAMED 1955-11-13 01:00:00 TS -13.5478 122.440 999 bom main 318 310 P_____O__PO___ SH011956 -13.9697 122.028 -1 -12.7000 123.300 999 -13.9697 122.028 TC -14.0000 122.000 7 2 228
1955316S11124 1956 93 SI WA NOT_NAMED 1955-11-13 03:00:00 TS -13.6087 122.377 main 310 310 P_____P__PP___ SH011956 -14.0800 121.912 -1 -12.7988 123.206 -14.0800 121.912 TC -14.1183 121.909 7 3 223
1955316S11124 1956 93 SI WA NOT_NAMED 1955-11-13 06:00:00 TS -13.6969 122.291 main 310 310 O_____P__OP___ jtwc_sh SH011956 -14.2000 121.800 -1 -12.9468 123.051 -14.2000 121.800 TC -14.2327 121.829 7 3 221
1955316S11124 1956 93 SI WA NOT_NAMED 1955-11-13 09:00:00 TS -13.8113 122.196 main 310 300 P_____P__PP___ SH011956 -14.3000 121.750 -1 -13.0948 122.883 -14.3000 121.750 TC -14.3049 121.782 7 3 220
1955316S11124 1956 93 SI WA NOT_NAMED 1955-11-13 12:00:00 TS -13.9246 122.097 main 303 292 O_____P__OP___ jtwc_sh SH011956 -14.4000 121.700 -1 -13.2431 122.706 -14.4000 121.700 TC -14.3722 121.727 7 3 222
1955316S11124 1956 93 SI WA NOT_NAMED 1955-11-13 13:00:00 TS -13.9679 122.054 main 292 285 P_____P__PO___ SH011956 -14.4443 121.664 -1 -13.2927 122.645 -14.4443 121.664 TC -14.4000 121.700 7 4 225
1955316S11124 1956 93 SI WA NOT_NAMED 1955-11-13 15:00:00 TS -14.0669 121.950 main 289 278 P_____P__PP___ SH011956 -14.5425 121.573 -1 -13.3922 122.522 -14.5425 121.573 TC -14.4992 121.593 7 4 227
1955316S11124 1956 93 SI WA NOT_NAMED 1955-11-13 18:00:00 TS -14.2220 121.773 main 283 273 O_____P__OP___ jtwc_sh SH011956 -14.7000 121.400 -1 -13.5425 122.334 -14.7000 121.400 TC -14.6607 121.407 7 5 229
1955316S11124 1956 93 SI WA NOT_NAMED 1955-11-13 21:00:00 TS -14.3799 121.579 main 273 269 P_____P__PP___ SH011956 -14.8650 121.185 -1 -13.6944 122.146 -14.8650 121.185 TC -14.8209 121.216 7 5 230
1955316S11124 1956 93 SI WA NOT_NAMED 1955-11-14 00:00:00 TS -14.5218 121.401 main 275 266 O_____P__OP___ jtwc_sh SH011956 -15.0000 121.000 -1 -13.8482 121.961 -15.0000 121.000 TC -14.9610 121.047 7 4 230
1955316S11124 1956 93 SI WA NOT_NAMED 1955-11-14 01:00:00 TS -14.5609 121.356 995 bom main 266 266 P_____O__PO___ SH011956 -15.0281 120.966 -1 -13.9000 121.900 995 -15.0281 120.966 TC -15.0000 121.000 7 3 228
1955316S11124 1956 93 SI WA NOT_NAMED 1955-11-14 03:00:00 TS -14.6248 121.284 main 273 264 P_____P__PP___ SH011956 -15.0650 120.927 -1 -13.9963 121.788 -15.0650 120.927 TC -15.0535 120.941 7 3 226
1955316S11124 1956 93 SI WA NOT_NAMED 1955-11-14 06:00:00 TS -14.7077 121.196 main 271 270 O_____P__OP___ jtwc_sh SH011956 -15.1000 120.900 -1 -14.1407 121.622 -15.1000 120.900 TC -15.1085 120.883 7 2 226
1955316S11124 1956 93 SI WA NOT_NAMED 1955-11-14 09:00:00 TS -14.7943 121.103 main 270 270 P_____P__PP___ SH011956 -15.1500 120.850 -1 -14.2872 121.458 -15.1500 120.850 TC -15.1471 120.847 7 3 226
1955316S11124 1956 93 SI WA NOT_NAMED 1955-11-14 12:00:00 TS -14.8826 121.012 main 270 270 O_____P__OP___ jtwc_sh SH011956 -15.2000 120.800 -1 -14.4381 121.295 -15.2000 120.800 TC -15.1849 120.814 7 3 225
1955316S11124 1956 93 SI WA NOT_NAMED 1955-11-14 13:00:00 TS -14.9121 120.982 main 270 270 P_____P__PO___ SH011956 -15.2140 120.786 -1 -14.4898 121.242 -15.2140 120.786 TC -15.2000 120.800 7 3 225
1955316S11124 1956 93 SI WA NOT_NAMED 1955-11-14 15:00:00 TS -14.9756 120.918 main 270 270 P_____P__PP___ SH011956 -15.2425 120.757 -1 -14.5958 121.134 -15.2425 120.757 TC -15.2469 120.753 7 3 224
1955316S11124 1956 93 SI WA NOT_NAMED 1955-11-14 18:00:00 TS -15.0813 120.815 main 270 270 O_____P__OP___ jtwc_sh SH011956 -15.3000 120.700 -1 -14.7625 120.974 -15.3000 120.700 TC -15.3237 120.676 7 3 223
1955316S11124 1956 93 SI WA NOT_NAMED 1955-11-14 21:00:00 TS -15.2092 120.695 main 270 262 P_____P__PP___ SH011956 -15.4000 120.600 -1 -14.9406 120.814 -15.4000 120.600 TC -15.4025 120.598 7 3 221
1955316S11124 1956 93 SI WA NOT_NAMED 1955-11-15 00:00:00 TS -15.3419 120.575 main 270 262 O_____P__OP___ jtwc_sh SH011956 -15.5000 120.500 -1 -15.1326 120.653 -15.5000 120.500 TC -15.4771 120.523 7 3 220
1955316S11124 1956 93 SI WA NOT_NAMED 1955-11-15 01:00:00 TS -15.3838 120.538 990 bom main 270 262 P_____O__PO___ SH011956 -15.5224 120.478 -1 -15.2000 120.600 990 4 -15.5224 120.478 TC -15.5000 120.500 7 3 220
1955316S11124 1956 93 SI WA NOT_NAMED 1955-11-15 03:00:00 TS -15.4662 120.466 main 262 262 P_____P__PP___ SH011956 -15.5575 120.442 -1 -15.3507 120.472 -15.5575 120.442 TC -15.5364 120.464 7 3 220
1955316S11124 1956 93 SI WA NOT_NAMED 1955-11-15 06:00:00 TS -15.5900 120.361 main 263 263 O_____P__OP___ jtwc_sh SH011956 -15.6000 120.400 -1 -15.5911 120.277 -15.6000 120.400 TC -15.5847 120.415 7 3 219
1955316S11124 1956 93 SI WA NOT_NAMED 1955-11-15 09:00:00 TS -15.7212 120.255 main 264 261 P_____P__PP___ SH011956 -15.6500 120.350 -1 -15.8443 120.081 -15.6500 120.350 TC -15.6308 120.369 7 3 217
1955316S11124 1956 93 SI WA NOT_NAMED 1955-11-15 12:00:00 TS -15.8559 120.150 main 261 270 O_____P__OP___ jtwc_sh SH011956 -15.7000 120.300 -1 -16.1052 119.892 -15.7000 120.300 TC -15.6812 120.319 7 3 217
1955316S11124 1956 93 SI WA NOT_NAMED 1955-11-15 13:00:00 TS -15.9004 120.117 main 270 264 P_____P__PO___ SH011956 -15.7140 120.286 -1 -16.1929 119.832 -15.7140 120.286 TC -15.7000 120.300 7 3 214
1955316S11124 1956 93 SI WA NOT_NAMED 1955-11-15 15:00:00 TS -15.9876 120.054 main 264 269 P_____P__PP___ SH011956 -15.7425 120.257 -1 -16.3686 119.716 -15.7425 120.257 TC -15.7285 120.269 7 3 214
1955316S11124 1956 93 SI WA NOT_NAMED 1955-11-15 18:00:00 TS -16.1243 119.959 main 269 269 O_____P__OP___ jtwc_sh SH011956 -15.8000 120.200 -1 -16.6295 119.559 -15.8000 120.200 TC -15.7772 120.216 7 3 213
1955316S11124 1956 93 SI WA NOT_NAMED 1955-11-15 21:00:00 TS -16.2729 119.859 main 269 269 P_____P__PP___ SH011956 -15.8850 120.115 -1 -16.8828 119.426 -15.8850 120.115 TC -15.8470 120.145 7 4 213
1955316S11124 1956 93 SI WA NOT_NAMED 1955-11-16 00:00:00 TS -16.4354 119.754 main 274 280 O_____P__OP___ jtwc_sh SH011956 -16.0000 120.000 -1 -17.1235 119.326 -16.0000 120.000 TC -15.9536 120.043 7 4 212
1955316S11124 1956 93 SI WA NOT_NAMED 1955-11-16 01:00:00 TS -16.4877 119.717 990 bom main 280 277 P_____O__PO___ SH011956 -16.0390 119.958 -1 -17.2000 119.300 990 -16.0390 119.958 TC -16.0000 120.000 7 4 216
1955316S11124 1956 93 SI WA NOT_NAMED 1955-11-16 03:00:00 TS -16.5883 119.634 main 287 284 P_____P__PP___ SH011956 -16.1275 119.865 -1 -17.3024 119.240 -16.1275 119.865 TC -16.1106 119.880 7 4 217
1955316S11124 1956 93 SI WA NOT_NAMED 1955-11-16 06:00:00 TS -16.7566 119.501 main 290 290 O_____P__OP___ jtwc_sh SH011956 -16.3000 119.700 -1 -17.4376 119.173 -16.3000 119.700 TC -16.3143 119.667 7 4 215
1955316S11124 1956 93 SI WA NOT_NAMED 1955-11-16 09:00:00 TS -16.9531 119.368 main 294 294 P_____P__PP___ SH011956 -16.5350 119.508 -1 -17.5624 119.136 -16.5350 119.508 TC -16.5519 119.447 7 5 211
1955316S11124 1956 93 SI WA NOT_NAMED 1955-11-16 12:00:00 TS -17.1665 119.247 main 307 307 O_____P__OP___ jtwc_sh SH011956 -16.8000 119.300 -1 -17.6903 119.133 -16.8000 119.300 TC -16.8110 119.253 7 5 208
1955316S11124 1956 93 SI WA NOT_NAMED 1955-11-16 13:00:00 TS -17.2360 119.208 main 307 300 P_____P__PO___ SH011956 -16.8807 119.223 -1 -17.7358 119.140 -16.8807 119.223 TC -16.9000 119.200 7 5 206
1955316S11124 1956 93 SI WA NOT_NAMED 1955-11-16 15:00:00 TS -17.3699 119.137 main 300 278 P_____P__PP___ SH011956 -17.0425 119.070 -1 -17.8343 119.168 -17.0425 119.070 TC -17.0403 119.091 7 5 201
1955316S11124 1956 93 SI WA NOT_NAMED 1955-11-16 18:00:00 TS -17.5872 119.073 main 278 256 O_____P__OP___ jtwc_sh SH011956 -17.3000 118.900 -1 -18.0076 119.243 -17.3000 118.900 TC -17.2626 118.964 7 5 187
1955316S11124 1956 93 SI WA NOT_NAMED 1955-11-16 21:00:00 TS -17.8283 119.077 main 256 221 P_____P__PP___ SH011956 -17.5624 118.825 -1 -18.2234 119.364 -17.5624 118.825 TC -17.5272 118.909 7 6 170
1955316S11124 1956 93 SI WA NOT_NAMED 1955-11-17 00:00:00 TS -18.1321 119.178 main 221 210 O_____P__OP___ jtwc_sh SH011956 -17.9000 118.900 -1 -18.4949 119.532 -17.9000 118.900 TC -17.8655 118.956 7 7 160
1955316S11124 1956 93 SI WA NOT_NAMED 1955-11-17 01:00:00 TS -18.2528 119.235 1000 bom main 200 172 P_____O__PO___ SH011956 -18.0386 118.960 -1 -18.6000 119.600 1000 -18.0386 118.960 TC -18.0000 119.000 7 9 153
1955316S11124 1956 93 SI WA NOT_NAMED 1955-11-17 03:00:00 TS -18.5322 119.389 main 172 112 P_____P__PP___ SH011956 -18.3550 119.140 -1 -18.8473 119.750 1000 -18.3550 119.140 TC -18.3307 119.136 7 10 150
1955316S11124 1956 93 SI WA NOT_NAMED 1955-11-17 06:00:00 TS -19.0073 119.688 main 112 49 O_____P__OP___ jtwc_sh SH011956 -18.9000 119.500 -1 -19.2515 120.014 1000 -18.9000 119.500 TC -18.9028 119.441 7 12 149
1955316S11124 1956 93 SI WA NOT_NAMED 1955-11-17 09:00:00 TS -19.5207 120.026 main 49 24 P_____P__PP___ SH011956 -19.5000 119.885 -1 -19.6656 120.303 1000 -19.5000 119.885 TC -19.5159 119.829 7 12 148
1955316S11124 1956 93 SI WA NOT_NAMED 1955-11-17 10:00:00 TS -19.6942 120.145 1000 bom main 24 0 P_____O__PP___ SH011956 -19.7049 120.022 -1 -19.8000 120.400 1000 -19.7049 120.022 TC -19.7197 119.969 7 12 146
1955316S11124 1956 93 SI WA NOT_NAMED 1955-11-17 12:00:00 TS -20.0319 120.388 main 0 0 O_____P__OP___ jtwc_sh SH011956 -20.1000 120.300 -1 -20.0580 120.593 -20.1000 120.300 TC -20.1138 120.257 7 12 146
1955316S11124 1956 93 SI WA NOT_NAMED 1955-11-17 13:00:00 TS -20.1926 120.508 main 0 0 P_____P__PO___ SH011956 -20.2833 120.433 -1 -20.1819 120.688 -20.2833 120.433 TC -20.3000 120.400 7 12 144
1955316S11124 1956 93 SI WA NOT_NAMED 1955-11-17 15:00:00 TS -20.4997 120.746 main 0 0 P_____P__PP___ SH011956 -20.6299 120.700 -1 -20.4206 120.877 -20.6299 120.700 TC -20.6444 120.681 7 11 143
1955316S11124 1956 93 SI WA NOT_NAMED 1955-11-17 18:00:00 TS -20.9274 121.106 main 0 0 O_____P__OP___ jtwc_sh SH011956 -21.1000 121.100 -1 -20.7600 121.157 -21.1000 121.100 TC -21.1007 121.087 7 11 141
1955316S11124 1956 93 SI WA NOT_NAMED 1955-11-17 21:00:00 TS -21.3162 121.459 main 0 0 P_____P__PP___ SH011956 -21.5152 121.500 -1 -21.0830 121.433 -21.5152 121.500 TC -21.5047 121.482 7 10 139
1955316S11124 1956 93 SI WA NOT_NAMED 1955-11-18 00:00:00 TS -21.6785 121.808 main 0 0 O_____P__OP___ jtwc_sh SH011956 -21.9000 121.900 -1 -21.3965 121.708 -21.9000 121.900 TC -21.8784 121.871 7 9 137
1955316S11124 1956 93 SI WA NOT_NAMED 1955-11-18 01:00:00 NR -21.7500 121.900 1003 bom main 0 ______O___O___ SH011956 -1 -21.5000 121.800 1003 TC -22.0000 122.000 7 7 130

IBTrACS Databaseについて

本データベースは、米国NOAAが公開する1842年以降の世界の熱帯低気圧のベストトラックデータアーカイブInternational Best Track Archive for Climate Stewardship (IBTrACS)を、ウェブで閲覧しやすい形式に変換したものです。

最終更新日:2021-10-08